createdAt,value
2019-04-26T00:03:49.847Z,67.6
2019-04-26T00:08:37.703Z,67.3
2019-04-26T00:13:25.557Z,66.8
2019-04-26T00:18:12.899Z,66.9
2019-04-26T00:22:59.756Z,66.7
2019-04-26T00:27:00.437Z,67.2
2019-04-26T00:27:16.923Z,67.2
2019-04-26T00:27:32.580Z,67.3
2019-04-26T00:27:48.217Z,67.3
2019-04-26T00:28:03.876Z,67
2019-04-26T00:28:19.459Z,67
2019-04-26T00:28:35.039Z,67.3
2019-04-26T00:28:50.616Z,67.1
2019-04-26T00:29:53.452Z,67.9
2019-04-26T00:34:40.704Z,67.5
2019-04-26T00:39:27.763Z,66.9
2019-04-26T00:44:16.551Z,66.8
2019-04-26T00:49:05.937Z,66.6
2019-04-26T00:53:53.981Z,66.7
2019-04-26T00:58:41.399Z,67.1
2019-04-26T01:02:42.037Z,67.6
2019-04-26T01:02:57.617Z,67.6
2019-04-26T01:03:13.179Z,67.4
2019-04-26T01:04:17.035Z,67.8
2019-04-26T01:09:04.511Z,68
2019-04-26T01:13:52.482Z,67.8
2019-04-26T01:18:39.711Z,68.1
2019-04-26T01:23:27.263Z,68.8
2019-04-26T01:28:14.790Z,69.1
2019-04-26T01:33:02.397Z,68.9
2019-04-26T01:37:03.357Z,68.7
2019-04-26T01:37:20.347Z,68.6
2019-04-26T01:37:36.127Z,68.9
2019-04-26T01:37:51.678Z,68.9
2019-04-26T01:38:07.260Z,68.7
2019-04-26T01:38:23.682Z,68.6
2019-04-26T01:38:39.336Z,68.5
2019-04-26T01:39:41.316Z,69.1
2019-04-26T01:44:28.794Z,68.5
2019-04-26T01:49:16.241Z,68.1
2019-04-26T01:54:03.416Z,68
2019-04-26T01:58:51.312Z,67.7
2019-04-26T02:03:38.372Z,67.7
2019-04-26T02:08:26.258Z,68
2019-04-26T02:12:27.349Z,69.1
2019-04-26T02:12:43.171Z,69
2019-04-26T02:12:59.213Z,69
2019-04-26T02:13:14.790Z,68.8
2019-04-26T02:13:30.989Z,69.2
2019-04-26T02:13:46.605Z,69.1
2019-04-26T02:14:07.428Z,69
2019-04-26T02:14:23.848Z,69
2019-04-26T02:14:40.718Z,69
2019-04-26T02:14:56.285Z,69
2019-04-26T02:16:01.743Z,68.9
2019-04-26T02:20:49.493Z,69.2
2019-04-26T02:25:37.137Z,69.1
2019-04-26T02:30:26.399Z,69
2019-04-26T02:35:14.740Z,68.8
2019-04-26T02:40:07.167Z,69.1
2019-04-26T02:44:07.811Z,70.2
2019-04-26T02:44:23.404Z,70.2
2019-04-26T02:44:38.972Z,70.2
2019-04-26T02:44:54.537Z,70
2019-04-26T02:45:10.123Z,69.8
2019-04-26T02:45:28.348Z,69.8
2019-04-26T02:45:44.508Z,69.8
2019-04-26T02:46:01.115Z,69.8
2019-04-26T02:46:17.497Z,69.8
2019-04-26T02:46:34.402Z,69.6
2019-04-26T02:46:51.370Z,69.9
2019-04-26T02:47:06.930Z,69.9
2019-04-26T02:47:22.493Z,69.7
2019-04-26T02:47:39.146Z,69.6
2019-04-26T02:47:54.859Z,69.6
2019-04-26T02:48:10.413Z,69.6
2019-04-26T02:48:28.314Z,69.7
2019-04-26T02:49:31.277Z,70.4
2019-04-26T02:54:19.573Z,70.1
2019-04-26T02:59:06.400Z,70.1
2019-04-26T03:03:53.802Z,69.7
2019-04-26T03:08:40.582Z,69.7
2019-04-26T03:13:27.979Z,69.9
2019-04-26T03:17:30.472Z,70.7
2019-04-26T03:17:48.411Z,70.7
2019-04-26T03:18:03.998Z,70.4
2019-04-26T03:19:05.744Z,71.3
2019-04-26T03:23:57.594Z,70.9
2019-04-26T03:28:46.093Z,70.5
2019-04-26T03:33:38.182Z,70.2
2019-04-26T03:38:30.340Z,70.1
2019-04-26T03:43:17.490Z,70.2
2019-04-26T03:47:18.153Z,71.2
2019-04-26T03:47:34.250Z,71.2
2019-04-26T03:47:51.901Z,71
2019-04-26T03:48:07.550Z,71
2019-04-26T03:49:09.381Z,71.4
2019-04-26T03:53:56.767Z,71.3
2019-04-26T03:58:45.319Z,70.9
2019-04-26T04:03:32.230Z,70.4
2019-04-26T04:08:20.913Z,70.6
2019-04-26T04:13:09.437Z,70.8
2019-04-26T04:17:10.097Z,71.5
2019-04-26T04:17:25.658Z,71.3
2019-04-26T04:17:43.200Z,71.2
2019-04-26T04:18:01.437Z,71.2
2019-04-26T04:18:17.986Z,71.2
2019-04-26T04:18:33.547Z,71.2
2019-04-26T04:18:49.133Z,71.7
2019-04-26T04:19:04.710Z,71.5
2019-04-26T04:19:20.652Z,71.5
2019-04-26T04:20:24.277Z,72.1
2019-04-26T04:25:11.295Z,71.7
2019-04-26T04:29:58.070Z,71.3
2019-04-26T04:34:46.019Z,71.1
2019-04-26T04:39:34.363Z,71
2019-04-26T04:44:21.600Z,71.1
2019-04-26T04:48:22.221Z,71.6
2019-04-26T04:48:37.851Z,71.4
2019-04-26T04:48:53.778Z,71.4
2019-04-26T04:49:56.318Z,71.9
2019-04-26T04:54:44.568Z,71.1
2019-04-26T04:59:33.079Z,70.8
2019-04-26T05:04:21.855Z,70.4
2019-04-26T05:09:09.074Z,69.6
2019-04-26T05:13:56.124Z,69.2
2019-04-26T05:18:46.536Z,69
2019-04-26T05:23:33.777Z,68.6
2019-04-26T05:27:34.411Z,68
2019-04-26T05:27:50.888Z,68
2019-04-26T05:28:06.478Z,67.9
2019-04-26T05:28:22.694Z,67.9
2019-04-26T05:28:38.713Z,68.2
2019-04-26T05:28:55.823Z,68.2
2019-04-26T05:29:11.493Z,68.4
2019-04-26T05:29:27.087Z,68.4
2019-04-26T05:30:29.417Z,68.7
2019-04-26T05:35:16.340Z,68
2019-04-26T05:40:03.490Z,67.3
2019-04-26T05:44:51.891Z,66.4
2019-04-26T05:49:39.672Z,66.5
2019-04-26T05:54:26.921Z,66.2
2019-04-26T05:59:13.628Z,66.1
2019-04-26T06:04:00.951Z,66.2
2019-04-26T06:08:48.057Z,66.1
2019-04-26T06:13:34.857Z,66.2
2019-04-26T06:18:22.549Z,66.3
2019-04-26T06:23:09.313Z,66.3
2019-04-26T06:27:13.950Z,66.3
2019-04-26T06:27:29.926Z,66.3
2019-04-26T06:27:45.438Z,66.5
2019-04-26T06:28:01.110Z,66.5
2019-04-26T06:28:16.833Z,66.5
2019-04-26T06:28:32.379Z,66.6
2019-04-26T06:28:47.935Z,66.6
2019-04-26T06:29:03.442Z,66.6
2019-04-26T06:30:07.022Z,67.2
2019-04-26T06:34:54.908Z,66.3
2019-04-26T06:39:42.340Z,65.5
2019-04-26T06:44:30.251Z,64.9
2019-04-26T06:49:18.819Z,64.1
2019-04-26T06:54:06.387Z,63.2
2019-04-26T06:58:53.298Z,62.4
2019-04-26T07:03:42.499Z,61.9
2019-04-26T07:08:29.716Z,61.6
2019-04-26T07:13:16.807Z,61.4
2019-04-26T07:18:04.388Z,61
2019-04-26T07:22:51.460Z,60.7
2019-04-26T07:27:39.027Z,59.9
2019-04-26T07:32:26.143Z,59.8
2019-04-26T07:37:13.319Z,59.5
2019-04-26T07:42:03.162Z,59.2
2019-04-26T07:46:51.245Z,58.4
2019-04-26T07:51:38.950Z,56.8
2019-04-26T07:56:26.155Z,57.2
2019-04-26T08:01:14.087Z,55.4
2019-04-26T08:06:02.988Z,56
2019-04-26T08:10:51.222Z,55.7
2019-04-26T08:15:38.930Z,55.9
2019-04-26T08:20:28.180Z,55.3
2019-04-26T08:25:18.843Z,54.6
2019-04-26T08:30:10.123Z,54.7
2019-04-26T08:35:02.301Z,54.3
2019-04-26T08:39:53.537Z,51.9
2019-04-26T08:44:40.846Z,52.9
2019-04-26T08:49:29.525Z,51.1
2019-04-26T08:54:17.068Z,50.9
2019-04-26T08:59:04.333Z,49
2019-04-26T09:03:51.671Z,48.9
2019-04-26T09:08:43.351Z,48.7
2019-04-26T09:13:31.822Z,46.7
2019-04-26T09:18:19.844Z,47
2019-04-26T09:23:06.990Z,46.4
2019-04-26T09:27:55.027Z,45.8
2019-04-26T09:32:42.405Z,43.8
2019-04-26T09:37:29.254Z,43.9
2019-04-26T09:42:16.418Z,43.3
2019-04-26T09:47:03.556Z,43
2019-04-26T09:51:51.217Z,42.4
2019-04-26T09:56:38.485Z,41.7
2019-04-26T10:01:26.024Z,42.4
2019-04-26T10:06:13.171Z,42
2019-04-26T10:11:05.650Z,41.9
2019-04-26T10:15:58.212Z,40.9
2019-04-26T10:20:49.333Z,41.9
2019-04-26T10:25:36.974Z,39.6
2019-04-26T10:30:24.423Z,40.4
2019-04-26T10:35:12.670Z,39.9
2019-04-26T10:39:59.722Z,39.8
2019-04-26T10:44:46.990Z,40.6
2019-04-26T10:49:35.119Z,38.5
2019-04-26T10:54:24.108Z,38
2019-04-26T10:59:11.350Z,37.5
2019-04-26T11:03:58.989Z,37.1
2019-04-26T11:08:46.079Z,35.6
2019-04-26T11:13:33.204Z,36.5
2019-04-26T11:18:27.393Z,34.7
2019-04-26T11:23:16.983Z,36.4
2019-04-26T11:28:04.247Z,36
2019-04-26T11:32:52.043Z,33.7
2019-04-26T11:37:39.050Z,34.2
2019-04-26T11:42:26.177Z,33.2
2019-04-26T11:47:14.039Z,33
2019-04-26T11:52:02.778Z,32.5
2019-04-26T11:56:51.703Z,33
2019-04-26T12:01:41.995Z,32.6
2019-04-26T12:06:29.496Z,33.5
2019-04-26T12:11:18.611Z,31.3
2019-04-26T12:16:09.838Z,31.9
2019-04-26T12:21:01.016Z,31.8
2019-04-26T12:25:50.584Z,30.3
2019-04-26T12:30:38.262Z,31.3
2019-04-26T12:35:25.116Z,32.5
2019-04-26T12:40:12.357Z,31.2
2019-04-26T12:45:00.044Z,30.5
2019-04-26T12:49:46.771Z,28.9
2019-04-26T12:54:39.001Z,27.8
2019-04-26T12:59:43.135Z,28.2
2019-04-26T13:04:36.265Z,29
2019-04-26T13:09:26.599Z,29.4
2019-04-26T13:14:16.199Z,31.1
2019-04-26T13:19:03.293Z,30.6
2019-04-26T13:23:51.785Z,29.6
2019-04-26T13:28:39.443Z,28.9
2019-04-26T13:33:27.495Z,27.8
2019-04-26T13:38:16.024Z,28.1
2019-04-26T13:43:08.023Z,28.4
2019-04-26T13:47:54.849Z,27.9
2019-04-26T13:52:42.088Z,27.7
2019-04-26T13:57:29.542Z,27.7
2019-04-26T14:02:17.641Z,25.9
2019-04-26T14:07:04.858Z,26
2019-04-26T14:11:52.129Z,25.4
2019-04-26T14:16:40.741Z,24.4
2019-04-26T14:21:29.195Z,24.7
2019-04-26T14:26:21.038Z,24.8
2019-04-26T14:31:12.187Z,26.3
2019-04-26T14:36:03.252Z,25.7
2019-04-26T14:41:03.268Z,26.5
2019-04-26T14:45:56.092Z,26.9
2019-04-26T14:50:45.220Z,27.1
2019-04-26T14:55:33.870Z,28.2
2019-04-26T15:00:21.463Z,28.9
2019-04-26T15:05:09.553Z,29.5
2019-04-26T15:09:58.291Z,29.7
2019-04-26T15:14:49.163Z,31
2019-04-26T15:19:36.269Z,31.3
2019-04-26T15:24:25.898Z,31.3
2019-04-26T15:29:14.921Z,31.3
2019-04-26T15:34:03.388Z,30.4
2019-04-26T15:38:52.836Z,28.8
2019-04-26T15:43:40.590Z,28.2
2019-04-26T15:48:27.801Z,28.1
2019-04-26T15:53:15.255Z,28.9
2019-04-26T15:58:09.279Z,27.7
2019-04-26T16:02:58.576Z,27.8
2019-04-26T16:07:50.553Z,28.8
2019-04-26T16:12:37.438Z,30.2
2019-04-26T16:17:26.377Z,30.5
2019-04-26T16:22:13.597Z,31.6
2019-04-26T16:27:00.694Z,32.4
2019-04-26T16:31:49.413Z,33
2019-04-26T16:36:43.940Z,34
2019-04-26T16:41:37.677Z,33.6
2019-04-26T16:46:27.880Z,34.2
2019-04-26T16:51:15.213Z,34.7
2019-04-26T16:56:03.716Z,35.1
2019-04-26T17:00:57.139Z,36.3
2019-04-26T17:05:48.342Z,36.5
2019-04-26T17:10:38.854Z,37.2
2019-04-26T17:15:26.058Z,38.2
2019-04-26T17:20:15.271Z,38.9
2019-04-26T17:25:03.760Z,39.6
2019-04-26T17:29:52.597Z,39.9
2019-04-26T17:34:40.648Z,39.9
2019-04-26T17:39:30.304Z,40
2019-04-26T17:44:20.647Z,40.8
2019-04-26T17:49:13.143Z,40.8
2019-04-26T17:54:21.125Z,40.5
2019-04-26T17:59:33.372Z,40.2
2019-04-26T18:04:32.286Z,40.1
2019-04-26T18:09:40.505Z,41
2019-04-26T18:14:32.135Z,42.1
2019-04-26T18:19:19.443Z,43.3
2019-04-26T18:24:06.782Z,43.8
2019-04-26T18:28:55.268Z,44.1
2019-04-26T18:33:44.915Z,43.7
2019-04-26T18:38:32.243Z,45.3
2019-04-26T18:43:23.936Z,45.3
2019-04-26T18:48:14.754Z,47.7
2019-04-26T18:53:03.239Z,49.2
2019-04-26T18:57:54.749Z,48.9
2019-04-26T19:02:48.410Z,50.3
2019-04-26T19:07:40.424Z,50.2
2019-04-26T19:12:27.609Z,50.1
2019-04-26T19:17:14.474Z,49.8
2019-04-26T19:22:03.269Z,47.6
2019-04-26T19:26:51.450Z,47.3
2019-04-26T19:31:38.641Z,47.8
2019-04-26T19:36:29.108Z,48.2
2019-04-26T19:41:17.379Z,48.8
2019-04-26T19:46:08.086Z,49
2019-04-26T19:50:55.332Z,49.9
2019-04-26T19:55:47.357Z,50.7
2019-04-26T20:00:38.526Z,51.2
2019-04-26T20:05:31.826Z,51.2
2019-04-26T20:10:19.510Z,51.2
2019-04-26T20:15:06.590Z,51.4
2019-04-26T20:19:54.492Z,52.3
2019-04-26T20:24:43.011Z,51.8
2019-04-26T20:29:30.176Z,50.9
2019-04-26T20:34:18.674Z,50.4
2019-04-26T20:39:06.445Z,49.9
2019-04-26T20:44:05.071Z,49.5
2019-04-26T20:48:56.498Z,48.6
2019-04-26T20:53:44.369Z,47.7
2019-04-26T20:58:31.377Z,47.9
2019-04-26T21:03:23.823Z,47.5
2019-04-26T21:08:14.873Z,47.4
2019-04-26T21:13:02.627Z,48.4
2019-04-26T21:17:51.876Z,50
2019-04-26T21:22:39.466Z,49.6
2019-04-26T21:27:29.774Z,48.8
2019-04-26T21:32:20.574Z,47.3
2019-04-26T21:37:11.321Z,46.9
2019-04-26T21:42:03.540Z,46.9
2019-04-26T21:46:56.259Z,46.6
2019-04-26T21:51:51.297Z,46.4
2019-04-26T21:56:42.741Z,46.7
2019-04-26T22:01:35.993Z,46.7
2019-04-26T22:06:26.891Z,46.6
2019-04-26T22:11:19.980Z,47.3
2019-04-26T22:16:28.494Z,48.1
2019-04-26T22:21:21.693Z,46.9
2019-04-26T22:26:16.593Z,47.9
2019-04-26T22:31:07.370Z,48.4
2019-04-26T22:35:58.422Z,49.2
2019-04-26T22:40:48.648Z,49.8
2019-04-26T22:45:43.739Z,51
2019-04-26T22:50:33.961Z,51.1
2019-04-26T22:55:24.071Z,51.6
2019-04-26T23:00:15.003Z,52.1
2019-04-26T23:05:06.020Z,52.6
2019-04-26T23:09:55.358Z,53.3
2019-04-26T23:14:43.934Z,53.1
2019-04-26T23:19:33.440Z,53.7
2019-04-26T23:24:20.466Z,54.4
2019-04-26T23:29:17.576Z,55
2019-04-26T23:34:05.798Z,57.3
2019-04-26T23:38:53.149Z,61.1
2019-04-26T23:43:40.878Z,61.6
2019-04-26T23:48:28.825Z,64.2
2019-04-26T23:53:20.168Z,67.3
2019-04-26T23:58:10.625Z,69.2
